Hialeah, Florida
Current Conditions -  °F | °C
As of 4:53 PM on Monday 22 Dec 2014 (Local Time) from KMIA Reporting Station
Broken Clouds Broken Clouds  
Wind Chill: 78°   Ceiling: 25000
Heat Index: 80°   Visibility: 10mi
Dew Point: 69°   Wind: 10mph
Humidity: 74%   Direction: 150°SSE
Pressure: 29.96"   Gusts: NA
Location:  25.86°N, 80.29°W
Report Text: KMIA 222153Z 15009KT 10SM FEW023 BKN250 26/21 A2996 RMK AO2 SLP144 T02560206
Loading
Personal Weather Stations






























Interactive Weather Map New forecast layout! Learn more

10-Day Weather Forecast

Advertisements
Track Severe Weather on mobile